sensor_id;sensor_type;location;lat;lon;timestamp;temperature;humidity
66873;HTU21D;53781;51.090;5.884;2022-07-06T00:00:00;16.91;59.54
66873;HTU21D;53781;51.090;5.884;2022-07-06T00:00:15;16.92;59.57
66873;HTU21D;53781;51.090;5.884;2022-07-06T00:00:30;16.91;59.62
66873;HTU21D;53781;51.090;5.884;2022-07-06T00:00:44;16.88;59.68
66873;HTU21D;53781;51.090;5.884;2022-07-06T00:00:59;16.89;59.64
66873;HTU21D;53781;51.090;5.884;2022-07-06T00:01:13;16.87;59.64
66873;HTU21D;53781;51.090;5.884;2022-07-06T00:01:28;16.87;59.64
66873;HTU21D;53781;51.090;5.884;2022-07-06T00:01:43;16.87;59.70
66873;HTU21D;53781;51.090;5.884;2022-07-06T00:01:58;16.85;59.70
66873;HTU21D;53781;51.090;5.884;2022-07-06T00:02:12;16.84;59.70
66873;HTU21D;53781;51.090;5.884;2022-07-06T00:02:27;16.86;59.75
66873;HTU21D;53781;51.090;5.884;2022-07-06T00:02:42;16.82;59.73
66873;HTU21D;53781;51.090;5.884;2022-07-06T00:02:56;16.84;59.77
66873;HTU21D;53781;51.090;5.884;2022-07-06T00:03:11;16.81;59.76
66873;HTU21D;53781;51.090;5.884;2022-07-06T00:03:26;16.80;59.82
66873;HTU21D;53781;51.090;5.884;2022-07-06T00:03:40;16.81;59.83
66873;HTU21D;53781;51.090;5.884;2022-07-06T00:03:55;16.80;59.86
66873;HTU21D;53781;51.090;5.884;2022-07-06T00:04:10;16.80;59.83
66873;HTU21D;53781;51.090;5.884;2022-07-06T00:04:25;16.79;59.85
66873;HTU21D;53781;51.090;5.884;2022-07-06T00:04:39;16.77;59.90
66873;HTU21D;53781;51.090;5.884;2022-07-06T00:04:54;16.79;59.83
66873;HTU21D;53781;51.090;5.884;2022-07-06T00:05:09;16.79;59.95
66873;HTU21D;53781;51.090;5.884;2022-07-06T00:05:24;16.78;59.94
66873;HTU21D;53781;51.090;5.884;2022-07-06T00:05:39;16.75;59.93
66873;HTU21D;53781;51.090;5.884;2022-07-06T00:05:53;16.76;59.96
66873;HTU21D;53781;51.090;5.884;2022-07-06T00:06:08;16.76;59.93
66873;HTU21D;53781;51.090;5.884;2022-07-06T00:06:23;16.75;59.98
66873;HTU21D;53781;51.090;5.884;2022-07-06T00:06:38;16.74;59.92
66873;HTU21D;53781;51.090;5.884;2022-07-06T00:06:53;16.74;59.95
66873;HTU21D;53781;51.090;5.884;2022-07-06T00:07:08;16.72;60.01
66873;HTU21D;53781;51.090;5.884;2022-07-06T00:07:23;16.73;60.05
66873;HTU21D;53781;51.090;5.884;2022-07-06T00:07:38;16.71;60.06
66873;HTU21D;53781;51.090;5.884;2022-07-06T00:07:52;16.71;60.06
66873;HTU21D;53781;51.090;5.884;2022-07-06T00:08:07;16.71;60.11
66873;HTU21D;53781;51.090;5.884;2022-07-06T00:08:22;16.70;60.14
66873;HTU21D;53781;51.090;5.884;2022-07-06T00:08:37;16.69;60.12
66873;HTU21D;53781;51.090;5.884;2022-07-06T00:08:52;16.67;60.21
66873;HTU21D;53781;51.090;5.884;2022-07-06T00:09:07;16.67;60.21
66873;HTU21D;53781;51.090;5.884;2022-07-06T00:09:30;16.70;60.23
66873;HTU21D;53781;51.090;5.884;2022-07-06T00:09:45;16.71;60.15
66873;HTU21D;53781;51.090;5.884;2022-07-06T00:09:59;16.69;60.17
66873;HTU21D;53781;51.090;5.884;2022-07-06T00:10:14;16.67;60.18
66873;HTU21D;53781;51.090;5.884;2022-07-06T00:10:29;16.67;60.18
66873;HTU21D;53781;51.090;5.884;2022-07-06T00:10:43;16.67;60.19
66873;HTU21D;53781;51.090;5.884;2022-07-06T00:10:59;16.64;60.21
66873;HTU21D;53781;51.090;5.884;2022-07-06T00:11:14;16.65;60.21
66873;HTU21D;53781;51.090;5.884;2022-07-06T00:11:29;16.63;60.24
66873;HTU21D;53781;51.090;5.884;2022-07-06T00:11:44;16.62;60.27
66873;HTU21D;53781;51.090;5.884;2022-07-06T00:11:59;16.62;60.33
66873;HTU21D;53781;51.090;5.884;2022-07-06T00:12:14;16.60;60.28
66873;HTU21D;53781;51.090;5.884;2022-07-06T00:12:28;16.59;60.31
66873;HTU21D;53781;51.090;5.884;2022-07-06T00:12:43;16.59;60.33
66873;HTU21D;53781;51.090;5.884;2022-07-06T00:12:57;16.56;60.28
66873;HTU21D;53781;51.090;5.884;2022-07-06T00:13:12;16.59;60.40
66873;HTU21D;53781;51.090;5.884;2022-07-06T00:13:27;16.56;60.40
66873;HTU21D;53781;51.090;5.884;2022-07-06T00:13:42;16.56;60.43
66873;HTU21D;53781;51.090;5.884;2022-07-06T00:13:57;16.54;60.50
66873;HTU21D;53781;51.090;5.884;2022-07-06T00:14:12;16.54;60.51
66873;HTU21D;53781;51.090;5.884;2022-07-06T00:14:27;16.54;60.54
66873;HTU21D;53781;51.090;5.884;2022-07-06T00:14:41;16.51;60.55
66873;HTU21D;53781;51.090;5.884;2022-07-06T00:14:56;16.51;60.51
66873;HTU21D;53781;51.090;5.884;2022-07-06T00:15:11;16.52;60.56
66873;HTU21D;53781;51.090;5.884;2022-07-06T00:15:25;16.51;60.56
66873;HTU21D;53781;51.090;5.884;2022-07-06T00:15:40;16.49;60.66
66873;HTU21D;53781;51.090;5.884;2022-07-06T00:15:55;16.49;60.64
66873;HTU21D;53781;51.090;5.884;2022-07-06T00:16:10;16.49;60.60
66873;HTU21D;53781;51.090;5.884;2022-07-06T00:16:24;16.47;60.68
66873;HTU21D;53781;51.090;5.884;2022-07-06T00:16:39;16.49;60.70
66873;HTU21D;53781;51.090;5.884;2022-07-06T00:16:54;16.46;60.76
66873;HTU21D;53781;51.090;5.884;2022-07-06T00:17:08;16.47;60.73
66873;HTU21D;53781;51.090;5.884;2022-07-06T00:17:23;16.45;60.74
66873;HTU21D;53781;51.090;5.884;2022-07-06T00:17:38;16.45;60.78
66873;HTU21D;53781;51.090;5.884;2022-07-06T00:17:52;16.43;60.81
66873;HTU21D;53781;51.090;5.884;2022-07-06T00:18:07;16.44;60.86
66873;HTU21D;53781;51.090;5.884;2022-07-06T00:18:22;16.44;60.83
66873;HTU21D;53781;51.090;5.884;2022-07-06T00:18:36;16.42;60.86
66873;HTU21D;53781;51.090;5.884;2022-07-06T00:18:51;16.42;60.88
66873;HTU21D;53781;51.090;5.884;2022-07-06T00:19:06;16.42;60.93
66873;HTU21D;53781;51.090;5.884;2022-07-06T00:19:20;16.42;60.92
66873;HTU21D;53781;51.090;5.884;2022-07-06T00:19:35;16.42;60.96
66873;HTU21D;53781;51.090;5.884;2022-07-06T00:19:50;16.40;60.96
66873;HTU21D;53781;51.090;5.884;2022-07-06T00:20:05;16.41;60.99
66873;HTU21D;53781;51.090;5.884;2022-07-06T00:20:20;16.39;61.01
66873;HTU21D;53781;51.090;5.884;2022-07-06T00:20:34;16.39;61.01
66873;HTU21D;53781;51.090;5.884;2022-07-06T00:20:49;16.39;60.99
66873;HTU21D;53781;51.090;5.884;2022-07-06T00:21:04;16.40;61.02
66873;HTU21D;53781;51.090;5.884;2022-07-06T00:21:18;16.39;60.99
66873;HTU21D;53781;51.090;5.884;2022-07-06T00:21:33;16.36;61.03
66873;HTU21D;53781;51.090;5.884;2022-07-06T00:21:48;16.37;61.01
66873;HTU21D;53781;51.090;5.884;2022-07-06T00:22:03;16.35;60.96
66873;HTU21D;53781;51.090;5.884;2022-07-06T00:22:17;16.34;60.99
66873;HTU21D;53781;51.090;5.884;2022-07-06T00:22:32;16.32;61.01
66873;HTU21D;53781;51.090;5.884;2022-07-06T00:22:46;16.34;61.05
66873;HTU21D;53781;51.090;5.884;2022-07-06T00:23:01;16.32;61.05
66873;HTU21D;53781;51.090;5.884;2022-07-06T00:23:16;16.32;61.11
66873;HTU21D;53781;51.090;5.884;2022-07-06T00:23:30;16.31;61.13
66873;HTU21D;53781;51.090;5.884;2022-07-06T00:23:45;16.29;61.12
66873;HTU21D;53781;51.090;5.884;2022-07-06T00:24:00;16.29;61.15
66873;HTU21D;53781;51.090;5.884;2022-07-06T00:24:15;16.28;61.14
66873;HTU21D;53781;51.090;5.884;2022-07-06T00:24:32;16.29;61.14
66873;HTU21D;53781;51.090;5.884;2022-07-06T00:24:46;16.28;61.18
66873;HTU21D;53781;51.090;5.884;2022-07-06T00:25:01;16.29;61.19
66873;HTU21D;53781;51.090;5.884;2022-07-06T00:25:16;16.27;61.17
66873;HTU21D;53781;51.090;5.884;2022-07-06T00:25:31;16.28;61.15
66873;HTU21D;53781;51.090;5.884;2022-07-06T00:25:45;16.28;61.18
66873;HTU21D;53781;51.090;5.884;2022-07-06T00:26:00;16.26;61.24
66873;HTU21D;53781;51.090;5.884;2022-07-06T00:26:15;16.25;61.25
66873;HTU21D;53781;51.090;5.884;2022-07-06T00:26:30;16.26;61.27
66873;HTU21D;53781;51.090;5.884;2022-07-06T00:26:44;16.26;61.30
66873;HTU21D;53781;51.090;5.884;2022-07-06T00:26:59;16.24;61.31
66873;HTU21D;53781;51.090;5.884;2022-07-06T00:27:14;16.21;61.32
66873;HTU21D;53781;51.090;5.884;2022-07-06T00:27:28;16.24;61.31
66873;HTU21D;53781;51.090;5.884;2022-07-06T00:27:43;16.21;61.32
66873;HTU21D;53781;51.090;5.884;2022-07-06T00:27:58;16.21;61.33
66873;HTU21D;53781;51.090;5.884;2022-07-06T00:28:12;16.20;61.32
66873;HTU21D;53781;51.090;5.884;2022-07-06T00:28:27;16.21;61.34
66873;HTU21D;53781;51.090;5.884;2022-07-06T00:28:42;16.20;61.36
66873;HTU21D;53781;51.090;5.884;2022-07-06T00:28:57;16.21;61.37
66873;HTU21D;53781;51.090;5.884;2022-07-06T00:29:11;16.21;61.32
66873;HTU21D;53781;51.090;5.884;2022-07-06T00:29:26;16.21;61.32
66873;HTU21D;53781;51.090;5.884;2022-07-06T00:29:41;16.20;61.34
66873;HTU21D;53781;51.090;5.884;2022-07-06T00:29:58;16.20;61.34
66873;HTU21D;53781;51.090;5.884;2022-07-06T00:30:12;16.21;61.35
66873;HTU21D;53781;51.090;5.884;2022-07-06T00:30:27;16.19;61.41
66873;HTU21D;53781;51.090;5.884;2022-07-06T00:30:42;16.19;61.42
66873;HTU21D;53781;51.090;5.884;2022-07-06T00:30:57;16.20;61.40
66873;HTU21D;53781;51.090;5.884;2022-07-06T00:31:12;16.19;61.42
66873;HTU21D;53781;51.090;5.884;2022-07-06T00:31:27;16.19;61.41
66873;HTU21D;53781;51.090;5.884;2022-07-06T00:31:42;16.19;61.41
66873;HTU21D;53781;51.090;5.884;2022-07-06T00:31:57;16.19;61.41
66873;HTU21D;53781;51.090;5.884;2022-07-06T00:32:12;16.19;61.39
66873;HTU21D;53781;51.090;5.884;2022-07-06T00:32:27;16.18;61.44
66873;HTU21D;53781;51.090;5.884;2022-07-06T00:32:42;16.20;61.42
66873;HTU21D;53781;51.090;5.884;2022-07-06T00:32:57;16.18;61.38
66873;HTU21D;53781;51.090;5.884;2022-07-06T00:33:12;16.18;61.41
66873;HTU21D;53781;51.090;5.884;2022-07-06T00:33:27;16.18;61.39
66873;HTU21D;53781;51.090;5.884;2022-07-06T00:33:42;16.18;61.38
66873;HTU21D;53781;51.090;5.884;2022-07-06T00:33:56;16.17;61.40
66873;HTU21D;53781;51.090;5.884;2022-07-06T00:34:11;16.17;61.37
66873;HTU21D;53781;51.090;5.884;2022-07-06T00:34:26;16.17;61.41
66873;HTU21D;53781;51.090;5.884;2022-07-06T00:34:41;16.18;61.41
66873;HTU21D;53781;51.090;5.884;2022-07-06T00:34:55;16.15;61.44
66873;HTU21D;53781;51.090;5.884;2022-07-06T00:35:10;16.18;61.44
66873;HTU21D;53781;51.090;5.884;2022-07-06T00:35:25;16.16;61.48
66873;HTU21D;53781;51.090;5.884;2022-07-06T00:35:40;16.18;61.51
66873;HTU21D;53781;51.090;5.884;2022-07-06T00:35:54;16.16;61.48
66873;HTU21D;53781;51.090;5.884;2022-07-06T00:36:09;16.15;61.50
66873;HTU21D;53781;51.090;5.884;2022-07-06T00:36:24;16.16;61.49
66873;HTU21D;53781;51.090;5.884;2022-07-06T00:36:39;16.15;61.47
66873;HTU21D;53781;51.090;5.884;2022-07-06T00:36:53;16.15;61.47
66873;HTU21D;53781;51.090;5.884;2022-07-06T00:37:08;16.14;61.44
66873;HTU21D;53781;51.090;5.884;2022-07-06T00:37:23;16.14;61.48
66873;HTU21D;53781;51.090;5.884;2022-07-06T00:37:38;16.12;61.47
66873;HTU21D;53781;51.090;5.884;2022-07-06T00:37:54;16.14;61.48
66873;HTU21D;53781;51.090;5.884;2022-07-06T00:38:08;16.13;61.46
66873;HTU21D;53781;51.090;5.884;2022-07-06T00:38:23;16.12;61.47
66873;HTU21D;53781;51.090;5.884;2022-07-06T00:38:38;16.12;61.44
66873;HTU21D;53781;51.090;5.884;2022-07-06T00:38:53;16.11;61.45
66873;HTU21D;53781;51.090;5.884;2022-07-06T00:39:08;16.11;61.49
66873;HTU21D;53781;51.090;5.884;2022-07-06T00:39:22;16.10;61.50
66873;HTU21D;53781;51.090;5.884;2022-07-06T00:39:43;16.08;61.57
66873;HTU21D;53781;51.090;5.884;2022-07-06T00:39:58;16.07;61.56
66873;HTU21D;53781;51.090;5.884;2022-07-06T00:40:12;16.07;61.55
66873;HTU21D;53781;51.090;5.884;2022-07-06T00:40:27;16.07;61.63
66873;HTU21D;53781;51.090;5.884;2022-07-06T00:40:44;16.06;61.60
66873;HTU21D;53781;51.090;5.884;2022-07-06T00:40:58;16.06;61.60
66873;HTU21D;53781;51.090;5.884;2022-07-06T00:41:13;16.05;61.67
66873;HTU21D;53781;51.090;5.884;2022-07-06T00:41:28;16.05;61.65
66873;HTU21D;53781;51.090;5.884;2022-07-06T00:41:43;16.03;61.68
66873;HTU21D;53781;51.090;5.884;2022-07-06T00:41:57;16.04;61.66
66873;HTU21D;53781;51.090;5.884;2022-07-06T00:42:12;16.04;61.69
66873;HTU21D;53781;51.090;5.884;2022-07-06T00:42:27;16.04;61.73
66873;HTU21D;53781;51.090;5.884;2022-07-06T00:42:44;16.02;61.74
66873;HTU21D;53781;51.090;5.884;2022-07-06T00:42:59;16.01;61.78
66873;HTU21D;53781;51.090;5.884;2022-07-06T00:43:13;16.02;61.77
66873;HTU21D;53781;51.090;5.884;2022-07-06T00:43:28;16.01;61.82
66873;HTU21D;53781;51.090;5.884;2022-07-06T00:43:47;16.01;61.79
66873;HTU21D;53781;51.090;5.884;2022-07-06T00:44:07;16.00;61.81
66873;HTU21D;53781;51.090;5.884;2022-07-06T00:44:23;16.00;61.82
66873;HTU21D;53781;51.090;5.884;2022-07-06T00:44:38;15.99;61.86
66873;HTU21D;53781;51.090;5.884;2022-07-06T00:44:52;16.00;61.88
66873;HTU21D;53781;51.090;5.884;2022-07-06T00:45:08;15.99;61.89
66873;HTU21D;53781;51.090;5.884;2022-07-06T00:45:23;15.99;61.89
66873;HTU21D;53781;51.090;5.884;2022-07-06T00:45:38;15.97;61.82
66873;HTU21D;53781;51.090;5.884;2022-07-06T00:45:53;15.98;61.89
66873;HTU21D;53781;51.090;5.884;2022-07-06T00:46:09;15.95;61.89
66873;HTU21D;53781;51.090;5.884;2022-07-06T00:46:30;15.97;61.87
66873;HTU21D;53781;51.090;5.884;2022-07-06T00:46:45;15.93;61.91
66873;HTU21D;53781;51.090;5.884;2022-07-06T00:47:00;15.96;61.94
66873;HTU21D;53781;51.090;5.884;2022-07-06T00:47:15;15.95;62.01
66873;HTU21D;53781;51.090;5.884;2022-07-06T00:47:29;15.92;61.99
66873;HTU21D;53781;51.090;5.884;2022-07-06T00:47:45;15.92;62.01
66873;HTU21D;53781;51.090;5.884;2022-07-06T00:48:00;15.93;62.05
66873;HTU21D;53781;51.090;5.884;2022-07-06T00:48:14;15.91;62.15
66873;HTU21D;53781;51.090;5.884;2022-07-06T00:48:29;15.92;62.12
66873;HTU21D;53781;51.090;5.884;2022-07-06T00:48:45;15.93;62.12
66873;HTU21D;53781;51.090;5.884;2022-07-06T00:48:59;15.91;62.15
66873;HTU21D;53781;51.090;5.884;2022-07-06T00:49:14;15.91;62.20
66873;HTU21D;53781;51.090;5.884;2022-07-06T00:49:47;15.93;62.24
66873;HTU21D;53781;51.090;5.884;2022-07-06T00:50:21;15.92;62.26
66873;HTU21D;53781;51.090;5.884;2022-07-06T00:50:36;15.93;62.28
66873;HTU21D;53781;51.090;5.884;2022-07-06T00:50:51;15.92;62.28
66873;HTU21D;53781;51.090;5.884;2022-07-06T00:51:06;15.91;62.25
66873;HTU21D;53781;51.090;5.884;2022-07-06T00:51:25;15.93;62.31
66873;HTU21D;53781;51.090;5.884;2022-07-06T00:51:42;15.93;62.28
66873;HTU21D;53781;51.090;5.884;2022-07-06T00:51:57;15.93;62.25
66873;HTU21D;53781;51.090;5.884;2022-07-06T00:52:13;15.95;62.20
66873;HTU21D;53781;51.090;5.884;2022-07-06T00:52:27;15.93;62.22
66873;HTU21D;53781;51.090;5.884;2022-07-06T00:52:44;15.93;62.15
66873;HTU21D;53781;51.090;5.884;2022-07-06T00:53:01;15.91;62.21
66873;HTU21D;53781;51.090;5.884;2022-07-06T00:53:17;15.92;62.13
66873;HTU21D;53781;51.090;5.884;2022-07-06T00:53:31;15.93;62.09
66873;HTU21D;53781;51.090;5.884;2022-07-06T00:53:47;15.92;62.09
66873;HTU21D;53781;51.090;5.884;2022-07-06T00:54:04;15.91;62.11
66873;HTU21D;53781;51.090;5.884;2022-07-06T00:54:18;15.89;62.14
66873;HTU21D;53781;51.090;5.884;2022-07-06T00:54:34;15.88;62.18
66873;HTU21D;53781;51.090;5.884;2022-07-06T00:54:51;15.88;62.16
66873;HTU21D;53781;51.090;5.884;2022-07-06T00:55:06;15.85;62.21
66873;HTU21D;53781;51.090;5.884;2022-07-06T00:55:28;15.84;62.31
66873;HTU21D;53781;51.090;5.884;2022-07-06T00:55:43;15.85;62.34
66873;HTU21D;53781;51.090;5.884;2022-07-06T00:55:59;15.83;62.37
66873;HTU21D;53781;51.090;5.884;2022-07-06T00:56:14;15.83;62.32
66873;HTU21D;53781;51.090;5.884;2022-07-06T00:56:31;15.81;62.40
66873;HTU21D;53781;51.090;5.884;2022-07-06T00:56:46;15.78;62.44
66873;HTU21D;53781;51.090;5.884;2022-07-06T00:57:01;15.77;62.42
66873;HTU21D;53781;51.090;5.884;2022-07-06T00:57:15;15.78;62.47
66873;HTU21D;53781;51.090;5.884;2022-07-06T00:57:31;15.76;62.47
66873;HTU21D;53781;51.090;5.884;2022-07-06T00:57:46;15.77;62.47
66873;HTU21D;53781;51.090;5.884;2022-07-06T00:58:02;15.75;62.57
66873;HTU21D;53781;51.090;5.884;2022-07-06T00:58:17;15.72;62.58
66873;HTU21D;53781;51.090;5.884;2022-07-06T00:58:32;15.72;62.58
66873;HTU21D;53781;51.090;5.884;2022-07-06T00:58:47;15.70;62.66
66873;HTU21D;53781;51.090;5.884;2022-07-06T00:59:03;15.71;62.76
66873;HTU21D;53781;51.090;5.884;2022-07-06T00:59:18;15.70;62.78
66873;HTU21D;53781;51.090;5.884;2022-07-06T00:59:33;15.69;62.80
66873;HTU21D;53781;51.090;5.884;2022-07-06T00:59:47;15.69;62.76
66873;HTU21D;53781;51.090;5.884;2022-07-06T01:00:05;15.70;62.83
66873;HTU21D;53781;51.090;5.884;2022-07-06T01:00:23;15.68;62.86
66873;HTU21D;53781;51.090;5.884;2022-07-06T01:00:38;15.67;62.89
66873;HTU21D;53781;51.090;5.884;2022-07-06T01:00:59;15.67;62.89
66873;HTU21D;53781;51.090;5.884;2022-07-06T01:01:14;15.67;62.90
66873;HTU21D;53781;51.090;5.884;2022-07-06T01:01:28;15.66;62.89
66873;HTU21D;53781;51.090;5.884;2022-07-06T01:01:43;15.66;62.91
66873;HTU21D;53781;51.090;5.884;2022-07-06T01:01:58;15.66;62.94
66873;HTU21D;53781;51.090;5.884;2022-07-06T01:02:13;15.66;62.92
66873;HTU21D;53781;51.090;5.884;2022-07-06T01:02:31;15.65;62.87
66873;HTU21D;53781;51.090;5.884;2022-07-06T01:02:47;15.67;62.96
66873;HTU21D;53781;51.090;5.884;2022-07-06T01:03:02;15.65;62.96
66873;HTU21D;53781;51.090;5.884;2022-07-06T01:03:17;15.65;62.97
66873;HTU21D;53781;51.090;5.884;2022-07-06T01:03:32;15.63;63.00
66873;HTU21D;53781;51.090;5.884;2022-07-06T01:03:47;15.65;63.01
66873;HTU21D;53781;51.090;5.884;2022-07-06T01:04:02;15.63;63.02
66873;HTU21D;53781;51.090;5.884;2022-07-06T01:04:17;15.63;63.01
66873;HTU21D;53781;51.090;5.884;2022-07-06T01:04:31;15.63;63.05
66873;HTU21D;53781;51.090;5.884;2022-07-06T01:04:46;15.61;63.08
66873;HTU21D;53781;51.090;5.884;2022-07-06T01:05:05;15.65;63.12
66873;HTU21D;53781;51.090;5.884;2022-07-06T01:05:21;15.61;63.10
66873;HTU21D;53781;51.090;5.884;2022-07-06T01:05:36;15.61;63.08
66873;HTU21D;53781;51.090;5.884;2022-07-06T01:05:51;15.61;63.11
66873;HTU21D;53781;51.090;5.884;2022-07-06T01:06:06;15.60;63.11
66873;HTU21D;53781;51.090;5.884;2022-07-06T01:06:20;15.61;63.11
66873;HTU21D;53781;51.090;5.884;2022-07-06T01:06:36;15.61;63.18
66873;HTU21D;53781;51.090;5.884;2022-07-06T01:06:50;15.60;63.13
66873;HTU21D;53781;51.090;5.884;2022-07-06T01:07:05;15.62;63.16
66873;HTU21D;53781;51.090;5.884;2022-07-06T01:07:20;15.62;63.18
66873;HTU21D;53781;51.090;5.884;2022-07-06T01:07:36;15.61;63.18
66873;HTU21D;53781;51.090;5.884;2022-07-06T01:07:53;15.61;63.22
66873;HTU21D;53781;51.090;5.884;2022-07-06T01:08:08;15.60;63.24
66873;HTU21D;53781;51.090;5.884;2022-07-06T01:08:23;15.60;63.24
66873;HTU21D;53781;51.090;5.884;2022-07-06T01:08:38;15.61;63.28
66873;HTU21D;53781;51.090;5.884;2022-07-06T01:08:54;15.61;63.27
66873;HTU21D;53781;51.090;5.884;2022-07-06T01:09:10;15.61;63.27
66873;HTU21D;53781;51.090;5.884;2022-07-06T01:09:24;15.60;63.25
66873;HTU21D;53781;51.090;5.884;2022-07-06T01:09:39;15.61;63.25
66873;HTU21D;53781;51.090;5.884;2022-07-06T01:09:54;15.61;63.23
66873;HTU21D;53781;51.090;5.884;2022-07-06T01:10:11;15.61;63.23
66873;HTU21D;53781;51.090;5.884;2022-07-06T01:10:26;15.61;63.19
66873;HTU21D;53781;51.090;5.884;2022-07-06T01:10:41;15.62;63.18
66873;HTU21D;53781;51.090;5.884;2022-07-06T01:10:56;15.61;63.15
66873;HTU21D;53781;51.090;5.884;2022-07-06T01:11:11;15.61;63.18
66873;HTU21D;53781;51.090;5.884;2022-07-06T01:11:26;15.61;63.22
66873;HTU21D;53781;51.090;5.884;2022-07-06T01:11:41;15.61;63.21
66873;HTU21D;53781;51.090;5.884;2022-07-06T01:11:56;15.61;63.21
66873;HTU21D;53781;51.090;5.884;2022-07-06T01:12:11;15.61;63.30
66873;HTU21D;53781;51.090;5.884;2022-07-06T01:12:26;15.60;63.31
66873;HTU21D;53781;51.090;5.884;2022-07-06T01:12:42;15.61;63.34
66873;HTU21D;53781;51.090;5.884;2022-07-06T01:12:57;15.61;63.33
66873;HTU21D;53781;51.090;5.884;2022-07-06T01:13:12;15.62;63.37
66873;HTU21D;53781;51.090;5.884;2022-07-06T01:13:31;15.61;63.40
66873;HTU21D;53781;51.090;5.884;2022-07-06T01:13:48;15.62;63.47
66873;HTU21D;53781;51.090;5.884;2022-07-06T01:14:04;15.61;63.50
66873;HTU21D;53781;51.090;5.884;2022-07-06T01:14:20;15.61;63.51
66873;HTU21D;53781;51.090;5.884;2022-07-06T01:14:36;15.63;63.44
66873;HTU21D;53781;51.090;5.884;2022-07-06T01:14:51;15.61;63.43
66873;HTU21D;53781;51.090;5.884;2022-07-06T01:15:10;15.62;63.40
66873;HTU21D;53781;51.090;5.884;2022-07-06T01:15:25;15.62;63.40
66873;HTU21D;53781;51.090;5.884;2022-07-06T01:15:41;15.63;63.45
66873;HTU21D;53781;51.090;5.884;2022-07-06T01:15:56;15.61;63.41
66873;HTU21D;53781;51.090;5.884;2022-07-06T01:16:12;15.62;63.42
66873;HTU21D;53781;51.090;5.884;2022-07-06T01:16:27;15.62;63.44
66873;HTU21D;53781;51.090;5.884;2022-07-06T01:16:43;15.61;63.53
66873;HTU21D;53781;51.090;5.884;2022-07-06T01:16:58;15.62;63.50
66873;HTU21D;53781;51.090;5.884;2022-07-06T01:17:14;15.61;63.52
66873;HTU21D;53781;51.090;5.884;2022-07-06T01:17:29;15.62;63.53
66873;HTU21D;53781;51.090;5.884;2022-07-06T01:17:45;15.61;63.56
66873;HTU21D;53781;51.090;5.884;2022-07-06T01:18:00;15.62;63.53
66873;HTU21D;53781;51.090;5.884;2022-07-06T01:18:19;15.63;63.63
66873;HTU21D;53781;51.090;5.884;2022-07-06T01:18:34;15.61;63.68
66873;HTU21D;53781;51.090;5.884;2022-07-06T01:18:48;15.63;63.60
66873;HTU21D;53781;51.090;5.884;2022-07-06T01:19:03;15.63;63.51
66873;HTU21D;53781;51.090;5.884;2022-07-06T01:19:18;15.63;63.48
66873;HTU21D;53781;51.090;5.884;2022-07-06T01:19:32;15.62;63.52
66873;HTU21D;53781;51.090;5.884;2022-07-06T01:19:47;15.61;63.47
66873;HTU21D;53781;51.090;5.884;2022-07-06T01:20:29;15.61;63.53
66873;HTU21D;53781;51.090;5.884;2022-07-06T01:20:44;15.59;63.56
66873;HTU21D;53781;51.090;5.884;2022-07-06T01:21:12;15.59;63.53
66873;HTU21D;53781;51.090;5.884;2022-07-06T01:21:27;15.59;63.57
66873;HTU21D;53781;51.090;5.884;2022-07-06T01:21:41;15.59;63.55
66873;HTU21D;53781;51.090;5.884;2022-07-06T01:21:56;15.58;63.60
66873;HTU21D;53781;51.090;5.884;2022-07-06T01:22:11;15.60;63.63
66873;HTU21D;53781;51.090;5.884;2022-07-06T01:22:26;15.57;63.60
66873;HTU21D;53781;51.090;5.884;2022-07-06T01:22:42;15.56;63.63
66873;HTU21D;53781;51.090;5.884;2022-07-06T01:22:59;15.56;63.70
66873;HTU21D;53781;51.090;5.884;2022-07-06T01:23:14;15.57;63.69
66873;HTU21D;53781;51.090;5.884;2022-07-06T01:23:28;15.56;63.73
66873;HTU21D;53781;51.090;5.884;2022-07-06T01:23:45;15.56;63.73
66873;HTU21D;53781;51.090;5.884;2022-07-06T01:24:00;15.55;63.73
66873;HTU21D;53781;51.090;5.884;2022-07-06T01:24:15;15.54;63.70
66873;HTU21D;53781;51.090;5.884;2022-07-06T01:24:30;15.54;63.73
66873;HTU21D;53781;51.090;5.884;2022-07-06T01:24:45;15.52;63.71
66873;HTU21D;53781;51.090;5.884;2022-07-06T01:24:59;15.53;63.73
66873;HTU21D;53781;51.090;5.884;2022-07-06T01:25:15;15.52;63.68
66873;HTU21D;53781;51.090;5.884;2022-07-06T01:25:30;15.53;63.79
66873;HTU21D;53781;51.090;5.884;2022-07-06T01:25:45;15.51;63.78
66873;HTU21D;53781;51.090;5.884;2022-07-06T01:26:01;15.51;63.80
66873;HTU21D;53781;51.090;5.884;2022-07-06T01:26:19;15.47;63.84
66873;HTU21D;53781;51.090;5.884;2022-07-06T01:26:34;15.51;63.83
66873;HTU21D;53781;51.090;5.884;2022-07-06T01:26:49;15.48;63.85
66873;HTU21D;53781;51.090;5.884;2022-07-06T01:27:08;15.49;63.86
66873;HTU21D;53781;51.090;5.884;2022-07-06T01:27:22;15.48;63.95
66873;HTU21D;53781;51.090;5.884;2022-07-06T01:27:39;15.48;63.92
66873;HTU21D;53781;51.090;5.884;2022-07-06T01:27:54;15.48;63.92
66873;HTU21D;53781;51.090;5.884;2022-07-06T01:28:09;15.47;63.94
66873;HTU21D;53781;51.090;5.884;2022-07-06T01:28:24;15.47;63.93
66873;HTU21D;53781;51.090;5.884;2022-07-06T01:28:39;15.49;63.89
66873;HTU21D;53781;51.090;5.884;2022-07-06T01:28:55;15.46;63.92
66873;HTU21D;53781;51.090;5.884;2022-07-06T01:29:10;15.47;63.88
66873;HTU21D;53781;51.090;5.884;2022-07-06T01:29:24;15.47;63.92
66873;HTU21D;53781;51.090;5.884;2022-07-06T01:29:39;15.47;63.95
66873;HTU21D;53781;51.090;5.884;2022-07-06T01:29:54;15.46;63.95
66873;HTU21D;53781;51.090;5.884;2022-07-06T01:30:11;15.47;63.95
66873;HTU21D;53781;51.090;5.884;2022-07-06T01:30:26;15.47;63.93
66873;HTU21D;53781;51.090;5.884;2022-07-06T01:30:41;15.46;63.96
66873;HTU21D;53781;51.090;5.884;2022-07-06T01:30:56;15.46;64.01
66873;HTU21D;53781;51.090;5.884;2022-07-06T01:31:19;15.46;64.04
66873;HTU21D;53781;51.090;5.884;2022-07-06T01:31:34;15.47;64.02
66873;HTU21D;53781;51.090;5.884;2022-07-06T01:31:50;15.46;64.03
66873;HTU21D;53781;51.090;5.884;2022-07-06T01:32:05;15.46;64.07
66873;HTU21D;53781;51.090;5.884;2022-07-06T01:32:20;15.46;64.08
66873;HTU21D;53781;51.090;5.884;2022-07-06T01:32:37;15.45;64.05
66873;HTU21D;53781;51.090;5.884;2022-07-06T01:32:52;15.46;64.10
66873;HTU21D;53781;51.090;5.884;2022-07-06T01:33:07;15.47;64.11
66873;HTU21D;53781;51.090;5.884;2022-07-06T01:33:21;15.45;64.08
66873;HTU21D;53781;51.090;5.884;2022-07-06T01:33:36;15.46;64.10
66873;HTU21D;53781;51.090;5.884;2022-07-06T01:33:55;15.45;64.11
66873;HTU21D;53781;51.090;5.884;2022-07-06T01:34:09;15.44;64.15
66873;HTU21D;53781;51.090;5.884;2022-07-06T01:34:26;15.46;64.16
66873;HTU21D;53781;51.090;5.884;2022-07-06T01:34:41;15.44;64.11
66873;HTU21D;53781;51.090;5.884;2022-07-06T01:34:56;15.45;64.14
66873;HTU21D;53781;51.090;5.884;2022-07-06T01:35:13;15.45;64.17
66873;HTU21D;53781;51.090;5.884;2022-07-06T01:35:31;15.44;64.10
66873;HTU21D;53781;51.090;5.884;2022-07-06T01:35:49;15.45;64.12
66873;HTU21D;53781;51.090;5.884;2022-07-06T01:36:05;15.43;64.14